Flight Track Log - Related Links

Times and Time Zones

All times are in EDT time to prevent confusion due to time zone crossing. See the UAL252 flight status page for this flight to view local times or setup timezone preferences in your user account.

Time Position Orientation Groundspeed Altitude Reporting Facility
EDT Latitude Longitude Course Direction KTS MPH feet Rate Location/Type
Thu 09:17:22 AM 29.9603 -95.3508 298° West 150 173 800  Level Houston Center
Thu 09:18:18 AM 29.9708 -95.3739 298° West 160 184 2,700 1,622 Climbing Houston Center
Thu 09:19:13 AM 30.0150 -95.3517 24° Northeast 220 253 3,800 655 Climbing Houston Center
Thu 09:20:17 AM 30.0772 -95.3217 23° Northeast 253 291 4,000 762 Climbing Houston Center
Thu 09:21:19 AM 30.1467 -95.2878 23° Northeast 269 310 5,400 2,661 Climbing Houston Center
Thu 09:22:21 AM 30.2281 -95.2486 23° Northeast 263 303 9,500 2,758 Climbing Houston Center
Thu 09:23:23 AM 30.3044 -95.2147 21° North 289 333 11,100 1,452 Climbing Houston Center
Thu 09:24:25 AM 30.4022 -95.1794 17° North 359 413 12,500 1,742 Climbing Houston Center
Thu 09:25:27 AM 30.4978 -95.1339 22° Northeast 383 441 14,700 2,112 Climbing Houston Center
Thu 09:26:30 AM 30.6153 -95.0578 29° Northeast 398 458 16,900 1,872 Climbing Houston Center
Thu 09:27:32 AM 30.7178 -94.9953 28° Northeast 412 474 18,600 1,500 Climbing Houston Center
Thu 09:28:34 AM 30.8217 -94.9306 28° Northeast 419 482 20,000 1,306 Climbing Houston Center
Thu 09:29:36 AM 30.9278 -94.8639 28° Northeast 430 495 21,300 1,113 Climbing Houston Center
Thu 09:30:38 AM 31.0356 -94.7956 29° Northeast 436 502 22,300 968 Climbing Houston Center
Thu 09:31:40 AM 31.1461 -94.7247 29° Northeast 453 521 23,300 1,065 Climbing Houston Center
Thu 09:32:42 AM 31.2786 -94.6344 30° Northeast 478 550 24,500 968 Climbing Houston Center
Thu 09:33:44 AM 31.3900 -94.5597 30° Northeast 470 541 25,300 1,065 Climbing Houston Center
Thu 09:34:46 AM 31.5031 -94.4817 30° Northeast 473 544 26,700 1,355 Climbing Houston Center
Thu 09:35:48 AM 31.6364 -94.3894 30° Northeast 465 535 28,100 1,152 Climbing Houston Center
Thu 09:36:51 AM 31.7492 -94.3114 30° Northeast 469 540 29,100 1,200 Climbing Houston Center
Thu 09:37:53 AM 31.8608 -94.2325 31° Northeast 469 540 30,600 1,294 Climbing Houston Center
Thu 09:38:33 AM 31.9339 -94.1822 30° Northeast 462 532 31,300 1,260 Climbing Fort Worth Center
Thu 09:39:33 AM 32.0425 -94.1047 31° Northeast 457 526 32,700 1,350 Climbing Fort Worth Center
Thu 09:40:33 AM 32.1472 -94.0297 31° Northeast 450 518 34,000 1,350 Climbing Fort Worth Center
Thu 09:41:33 AM 32.2617 -93.9494 31° Northeast 441 507 35,400 1,250 Climbing Fort Worth Center
Thu 09:42:33 AM 32.3683 -93.8742 31° Northeast 436 502 36,500 800 Climbing Fort Worth Center
Thu 09:43:33 AM 32.4703 -93.7936 34° Northeast 436 502 37,000 250 Climbing Fort Worth Center
Thu 09:44:33 AM 32.5747 -93.7206 31° Northeast 441 507 37,000  Level Fort Worth Center
Thu 09:45:33 AM 32.6789 -93.6497 30° Northeast 436 502 37,000  Level Fort Worth Center
Thu 09:46:34 AM 32.7831 -93.5711 32° Northeast 436 502 37,000  Level Fort Worth Center
Thu 09:47:33 AM 32.8872 -93.4975 31° Northeast 441 507 37,000  Level Fort Worth Center
Thu 09:48:33 AM 32.9956 -93.4208 31° Northeast 441 507 37,000  Level Fort Worth Center
Thu 09:49:34 AM 33.0975 -93.3469 31° Northeast 441 507 37,000  Level Fort Worth Center
Thu 09:50:33 AM 33.2036 -93.2700 31° Northeast 441 507 37,000  Level Fort Worth Center
Thu 09:51:33 AM 33.3094 -93.1931 31° Northeast 441 507 37,000  Level Fort Worth Center
Thu 09:52:45 AM 33.4308 -93.1053 31° Northeast 472 543 37,000  Level Memphis Center
Thu 09:53:44 AM 33.5347 -93.0336 30° Northeast 455 524 37,000  Level Memphis Center
Thu 09:54:44 AM 33.6386 -92.9569 32° Northeast 436 502 37,000  Level Memphis Center
Thu 09:55:45 AM 33.7425 -92.8803 32° Northeast 436 502 37,000  Level Memphis Center
Thu 09:56:45 AM 33.8461 -92.8058 31° Northeast 436 502 37,000  Level Memphis Center
Thu 09:57:45 AM 33.9500 -92.7261 32° Northeast 436 502 37,000  Level Memphis Center
Thu 09:58:45 AM 34.0558 -92.6511 30° Northeast 436 502 37,000  Level Memphis Center
Thu 09:59:45 AM 34.1447 -92.5783 34° Northeast 436 502 37,000  Level Memphis Center
Thu 10:00:44 AM 34.2483 -92.5031 31° Northeast 436 502 37,000  Level Memphis Center
Thu 10:01:44 AM 34.3475 -92.4275 32° Northeast 431 496 37,000  Level Memphis Center
Thu 10:02:44 AM 34.4492 -92.3494 32° Northeast 431 496 37,000  Level Memphis Center
Thu 10:03:44 AM 34.5544 -92.2736 31° Northeast 436 502 37,000  Level Memphis Center
Thu 10:04:44 AM 34.6581 -92.1978 31° Northeast 436 502 37,000  Level Memphis Center
Thu 10:05:45 AM 34.7672 -92.1519 19° North 418 481 37,000  Level Memphis Center
Thu 10:06:45 AM 34.8761 -92.1239 12° North 406 467 37,000  Level Memphis Center
Thu 10:07:44 AM 34.9850 -92.0908 14° North 400 460 37,000  Level Memphis Center
Thu 10:08:44 AM 35.0981 -92.0600 13° North 395 455 37,000  Level Memphis Center
Thu 10:09:45 AM 35.2092 -92.0267 14° North 400 460 37,000  Level Memphis Center
Thu 10:10:45 AM 35.3200 -91.9958 13° North 400 460 37,000  Level Memphis Center
Thu 10:11:45 AM 35.4308 -91.9650 13° North 400 460 37,000  Level Memphis Center
Thu 10:12:45 AM 35.5419 -91.9314 14° North 400 460 37,000  Level Memphis Center
Thu 10:13:45 AM 35.6486 -91.9003 13° North 400 460 37,000  Level Memphis Center
Thu 10:14:44 AM 35.7597 -91.8689 13° North 394 453 37,000  Level Memphis Center
Thu 10:15:45 AM 35.8706 -91.8350 14° North 394 453 37,000  Level Memphis Center
Thu 10:16:45 AM 35.9856 -91.8039 12° North 394 453 37,000  Level Memphis Center
Thu 10:17:45 AM 36.0922 -91.7672 16° North 394 453 37,000  Level Memphis Center
Thu 10:18:44 AM 36.2094 -91.7383 11° North 400 460 37,000  Level Memphis Center
Thu 10:19:45 AM 36.3139 -91.7067 14° North 394 453 37,000  Level Memphis Center
Thu 10:20:44 AM 36.4269 -91.6722 14° North 394 453 37,000  Level Memphis Center
Thu 10:21:45 AM 36.5253 -91.6428 14° North 399 459 37,000  Level Memphis Center
Thu 10:23:30 AM 36.7164 -91.5833 14° North 386 444 37,000  Level Kansas City Center
Thu 10:24:31 AM 36.8214 -91.5508 14° North 387 445 37,000  Level Kansas City Center
Thu 10:25:34 AM 36.9264 -91.5203 13° North 387 445 37,000  Level Kansas City Center
Thu 10:26:35 AM 37.0239 -91.4900 14° North 389 448 37,000  Level Kansas City Center
Thu 10:27:38 AM 37.1397 -91.4550 14° North 394 453 37,000  Level Kansas City Center
Thu 10:28:38 AM 37.2472 -91.4217 14° North 395 455 37,000  Level Kansas City Center
Thu 10:29:42 AM 37.3750 -91.3822 14° North 395 455 37,000  Level Kansas City Center
Thu 10:30:43 AM 37.4806 -91.3494 14° North 393 452 37,000  Level Kansas City Center
Thu 10:31:47 AM 37.5858 -91.3181 13° North 391 450 37,000  Level Kansas City Center
Thu 10:32:46 AM 37.6953 -91.2847 14° North 395 455 37,000  Level Kansas City Center
Thu 10:33:50 AM 37.8058 -91.2497 14° North 401 461 37,000  Level Kansas City Center
Thu 10:34:53 AM 37.9150 -91.2158 14° North 404 465 37,000  Level Kansas City Center
Thu 10:35:53 AM 38.0461 -91.1744 14° North 405 466 37,000  Level Kansas City Center
Thu 10:36:55 AM 38.1553 -91.1408 14° North 404 465 37,000  Level Kansas City Center
Thu 10:37:58 AM 38.2658 -91.1075 13° North 407 468 37,000  Level Kansas City Center
Thu 10:38:58 AM 38.3747 -91.0739 14° North 405 466 37,000  Level Kansas City Center
Thu 10:40:02 AM 38.4842 -91.0389 14° North 405 466 37,000  Level Kansas City Center
Thu 10:41:05 AM 38.5939 -91.0047 14° North 404 465 37,000  Level Kansas City Center
Thu 10:42:06 AM 38.7033 -90.9689 14° North 403 464 37,000 -145 Level Kansas City Center
Thu 10:43:09 AM 38.8322 -90.8994 23° Northeast 412 474 36,700 -484 Descending Kansas City Center
Thu 10:44:10 AM 38.9403 -90.8419 22° Northeast 416 479 36,000 -339 Descending Kansas City Center
Thu 10:45:13 AM 39.0528 -90.7789 24° Northeast 431 496 36,000  Level Kansas City Center
Thu 10:46:14 AM 39.1658 -90.7178 23° Northeast 436 502 36,000 -387 Level Kansas City Center
Thu 10:47:17 AM 39.2781 -90.6567 23° Northeast 436 502 35,200 -484 Descending Kansas City Center
Thu 10:48:18 AM 39.3903 -90.5936 23° Northeast 438 504 35,000 -488 Descending Kansas City Center
Thu 10:49:20 AM 39.5022 -90.5317 23° Northeast 438 504 34,200 -927 Descending Kansas City Center
Thu 10:50:21 AM 39.6350 -90.4581 23° Northeast 433 498 33,100 -581 Descending Kansas City Center
Thu 10:51:24 AM 39.7472 -90.3947 23° Northeast 438 504 33,000 -48 Descending Kansas City Center
Thu 10:52:27 AM 39.8464 -90.3397 23° Northeast 436 502 33,000  Level Kansas City Center
Thu 10:53:28 AM 39.9814 -90.2636 23° Northeast 439 505 33,000  Level Kansas City Center
Thu 10:54:31 AM 40.0919 -90.2017 23° Northeast 434 499 33,000  Level Kansas City Center
Thu 10:55:32 AM 40.2019 -90.1394 23° Northeast 432 497 33,000  Level Kansas City Center
Thu 10:56:36 AM 40.3028 -90.0819 24° Northeast 398 458 33,000  Level Kansas City Center
Thu 10:57:29 AM 40.3969 -90.0283 23° Northeast 371 427 33,000 -313 Level Chicago Center
Thu 10:58:31 AM 40.4914 -90.0319 358° North 338 389 32,400 -871 Descending Chicago Center
Thu 10:59:33 AM 40.5864 -90.0564 349° North 341 392 31,200 -1,500 Descending Chicago Center
Thu 11:00:35 AM 40.6922 -90.0803 350° North 376 433 29,300 -1,935 Descending Chicago Center
Thu 11:01:37 AM 40.8022 -90.0294 19° North 422 486 27,200 -1,887 Descending Chicago Center
Thu 11:02:39 AM 40.8950 -89.9164 43° Northeast 443 510 25,400 -1,488 Descending Chicago Center
Thu 11:03:42 AM 40.9839 -89.8067 43° Northeast 434 499 24,100 -672 Descending Chicago Center
Thu 11:04:44 AM 41.0708 -89.6989 43° Northeast 427 491 24,000 -339 Descending Chicago Center
Thu 11:05:46 AM 41.1719 -89.5611 46° Northeast 434 499 23,400 -1,258 Descending Chicago Center
Thu 11:06:48 AM 41.2297 -89.4167 62° Northeast 447 514 21,400 -1,935 Descending Chicago Center
Thu 11:07:50 AM 41.2856 -89.2764 62° Northeast 433 498 19,400 -1,935 Descending Chicago Center
Thu 11:08:52 AM 41.3406 -89.1386 62° Northeast 426 490 17,400 -1,935 Descending Chicago Center
Thu 11:09:54 AM 41.3936 -89.0078 62° Northeast 408 470 15,400 -1,839 Descending Chicago Center
Thu 11:10:56 AM 41.4444 -88.8803 62° Northeast 394 453 13,600 -1,984 Descending Chicago Center
Thu 11:11:58 AM 41.5014 -88.7278 63° Northeast 386 444 11,300 -1,258 Descending Chicago Center
Thu 11:13:00 AM 41.5494 -88.6061 62° Northeast 375 432 11,000 -97 Descending Chicago Center
Thu 11:14:02 AM 41.5975 -88.4894 61° Northeast 362 417 11,100 -48 Climbing Chicago Center
Thu 11:15:05 AM 41.6578 -88.3819 53° Northeast 362 417 10,900 -96 Descending Chicago Center
Thu 11:16:07 AM 41.7203 -88.2750 52° Northeast 363 418 10,900 -194 Level Chicago Center
Thu 11:17:09 AM 41.7769 -88.1767 52° Northeast 339 390 10,500 -968 Descending Chicago Center
Thu 11:18:11 AM 41.8331 -88.0781 53° Northeast 294 338 8,900 -1,500 Descending Chicago Center
Thu 11:19:13 AM 41.8542 -87.9700 75° East 298 343 7,400 -919 Descending Chicago Center
Thu 11:20:15 AM 41.8731 -87.8625 77° East 295 339 7,000 -194 Descending Chicago Center
Thu 11:21:17 AM 41.8836 -87.7633 82° East 270 311 7,000 -435 Level Chicago Center
Thu 11:22:19 AM 41.8869 -87.6667 87° East 229 264 6,100 -1,161 Descending Chicago Center
Thu 11:23:21 AM 41.9353 -87.6567 North 195 224 4,600 -1,403 Descending Chicago Center
Thu 11:24:23 AM 41.9508 -87.7089 292° West 173 199 3,200 -995 Descending Chicago Center
Thu 11:26:46 AM 41.9667 -87.8500 279° West 132 152 1,200 -839 Descending Chicago TRACON

Login

Don't have an account? Register now (free) for customized features, flight alerts, and more!